createdAt,value
2017-12-16T00:00:55.970Z,995.69
2017-12-16T00:01:55.966Z,995.75
2017-12-16T00:02:55.984Z,995.74
2017-12-16T00:03:55.995Z,995.73
2017-12-16T00:04:56.015Z,995.76
2017-12-16T00:05:56.019Z,995.73
2017-12-16T00:06:56.035Z,995.73
2017-12-16T00:07:56.050Z,995.79
2017-12-16T00:08:56.063Z,995.83
2017-12-16T00:09:56.066Z,995.82
2017-12-16T00:10:56.083Z,995.84
2017-12-16T00:11:56.095Z,995.84
2017-12-16T00:12:56.106Z,995.84
2017-12-16T00:13:56.116Z,995.85
2017-12-16T00:14:56.141Z,995.91
2017-12-16T00:15:56.140Z,995.88
2017-12-16T00:16:56.152Z,995.92
2017-12-16T00:17:56.169Z,995.95
2017-12-16T00:18:56.180Z,995.90
2017-12-16T00:19:56.495Z,995.89
2017-12-16T00:20:56.196Z,995.88
2017-12-16T00:21:56.219Z,995.89
2017-12-16T00:22:56.238Z,995.92
2017-12-16T00:23:56.236Z,995.93
2017-12-16T00:24:56.256Z,995.95
2017-12-16T00:25:56.275Z,995.95
2017-12-16T00:26:56.275Z,995.94
2017-12-16T00:27:56.294Z,995.92
2017-12-16T00:28:56.298Z,995.89
2017-12-16T00:29:56.315Z,995.91
2017-12-16T00:30:56.341Z,995.94
2017-12-16T00:31:56.339Z,995.97
2017-12-16T00:32:56.347Z,995.96
2017-12-16T00:33:56.367Z,995.96
2017-12-16T00:34:56.377Z,996.02
2017-12-16T00:35:56.385Z,995.95
2017-12-16T00:36:56.407Z,996.02
2017-12-16T00:37:56.410Z,995.97
2017-12-16T00:38:56.430Z,996.00
2017-12-16T00:39:56.428Z,996.01
2017-12-16T00:40:56.459Z,996.02
2017-12-16T00:41:56.474Z,996.02
2017-12-16T00:42:56.467Z,996.00
2017-12-16T00:43:56.481Z,996.04
2017-12-16T00:44:56.504Z,996.01
2017-12-16T00:45:56.507Z,996.02
2017-12-16T00:46:56.520Z,996.04
2017-12-16T00:47:56.536Z,996.01
2017-12-16T00:48:56.549Z,996.03
2017-12-16T00:49:56.572Z,996.04
2017-12-16T00:50:56.571Z,996.01
2017-12-16T00:51:56.595Z,996.01
2017-12-16T00:52:56.593Z,996.03
2017-12-16T00:53:56.610Z,996.04
2017-12-16T00:54:56.635Z,996.06
2017-12-16T00:55:56.633Z,996.12
2017-12-16T00:56:56.646Z,996.09
2017-12-16T00:57:56.656Z,996.11
2017-12-16T00:58:56.661Z,996.09
2017-12-16T00:59:56.692Z,996.06
2017-12-16T01:00:56.708Z,996.06
2017-12-16T01:01:56.705Z,996.07
2017-12-16T01:02:56.713Z,996.07
2017-12-16T01:03:56.729Z,996.08
2017-12-16T01:04:56.748Z,996.09
2017-12-16T01:05:56.758Z,996.05
2017-12-16T01:06:56.774Z,996.09
2017-12-16T01:07:56.788Z,996.11
2017-12-16T01:08:56.792Z,996.11
2017-12-16T01:09:56.794Z,996.13
2017-12-16T01:10:56.821Z,996.13
2017-12-16T01:11:56.837Z,996.13
2017-12-16T01:12:56.840Z,996.13
2017-12-16T01:13:56.855Z,996.14
2017-12-16T01:14:56.865Z,996.12
2017-12-16T01:15:56.884Z,996.15
2017-12-16T01:16:56.889Z,996.10
2017-12-16T01:17:56.906Z,996.13
2017-12-16T01:18:56.916Z,996.06
2017-12-16T01:19:57.229Z,996.07
2017-12-16T01:20:56.941Z,996.13
2017-12-16T01:21:56.946Z,996.12
2017-12-16T01:22:56.960Z,996.16
2017-12-16T01:23:56.981Z,996.13
2017-12-16T01:24:56.977Z,996.16
2017-12-16T01:25:57.006Z,996.13
2017-12-16T01:26:57.019Z,996.16
2017-12-16T01:27:57.017Z,996.15
2017-12-16T01:28:57.037Z,996.14
2017-12-16T01:29:57.058Z,996.16
2017-12-16T01:30:57.063Z,996.16
2017-12-16T01:31:57.073Z,996.16
2017-12-16T01:32:57.073Z,996.16
2017-12-16T01:33:57.101Z,996.15
2017-12-16T01:34:57.110Z,996.19
2017-12-16T01:35:57.126Z,996.20
2017-12-16T01:36:57.134Z,996.22
2017-12-16T01:37:57.149Z,996.24
2017-12-16T01:38:57.159Z,996.22
2017-12-16T01:39:57.172Z,996.17
2017-12-16T01:40:57.187Z,996.17
2017-12-16T01:41:57.192Z,996.24
2017-12-16T01:42:57.205Z,996.22
2017-12-16T01:43:57.210Z,996.17
2017-12-16T01:44:57.240Z,996.22
2017-12-16T01:45:57.251Z,996.18
2017-12-16T01:46:57.255Z,996.18
2017-12-16T01:47:57.263Z,996.20
2017-12-16T01:48:57.285Z,996.25
2017-12-16T01:49:57.289Z,996.29
2017-12-16T01:50:57.308Z,996.23
2017-12-16T01:51:57.305Z,996.27
2017-12-16T01:52:57.338Z,996.22
2017-12-16T01:53:57.340Z,996.27
2017-12-16T01:54:57.352Z,996.28
2017-12-16T01:55:57.365Z,996.31
2017-12-16T01:56:57.375Z,996.30
2017-12-16T01:57:57.391Z,996.36
2017-12-16T01:58:57.402Z,996.32
2017-12-16T01:59:57.408Z,996.34
2017-12-16T02:00:57.428Z,996.37
2017-12-16T02:01:57.443Z,996.36
2017-12-16T02:02:57.441Z,996.36
2017-12-16T02:03:57.461Z,996.36
2017-12-16T02:04:57.772Z,996.37
2017-12-16T02:05:57.485Z,996.40
2017-12-16T02:06:57.502Z,996.42
2017-12-16T02:07:57.498Z,996.39
2017-12-16T02:08:57.523Z,996.42
2017-12-16T02:09:57.534Z,996.47
2017-12-16T02:10:57.538Z,996.40
2017-12-16T02:11:57.571Z,996.43
2017-12-16T02:12:57.562Z,996.43
2017-12-16T02:13:57.577Z,996.43
2017-12-16T02:14:57.595Z,996.45
2017-12-16T02:15:57.605Z,996.44
2017-12-16T02:16:57.604Z,996.45
2017-12-16T02:17:57.631Z,996.44
2017-12-16T02:18:57.644Z,996.47
2017-12-16T02:19:57.657Z,996.48
2017-12-16T02:20:57.656Z,996.52
2017-12-16T02:21:57.676Z,996.50
2017-12-16T02:22:57.681Z,996.53
2017-12-16T02:23:57.702Z,996.50
2017-12-16T02:24:57.700Z,996.48
2017-12-16T02:25:57.727Z,996.53
2017-12-16T02:26:57.740Z,996.53
2017-12-16T02:27:57.739Z,996.55
2017-12-16T02:28:57.758Z,996.54
2017-12-16T02:29:57.790Z,996.55
2017-12-16T02:30:57.784Z,996.54
2017-12-16T02:31:57.791Z,996.54
2017-12-16T02:32:57.802Z,996.51
2017-12-16T02:33:57.823Z,996.51
2017-12-16T02:34:57.848Z,996.47
2017-12-16T02:35:57.840Z,996.52
2017-12-16T02:36:57.847Z,996.49
2017-12-16T02:37:57.868Z,996.44
2017-12-16T02:38:57.874Z,996.44
2017-12-16T02:39:57.888Z,996.45
2017-12-16T02:40:57.893Z,996.47
2017-12-16T02:41:57.919Z,996.46
2017-12-16T02:42:57.927Z,996.46
2017-12-16T02:43:57.932Z,996.46
2017-12-16T02:44:57.958Z,996.48
2017-12-16T02:45:57.965Z,996.50
2017-12-16T02:46:57.975Z,996.45
2017-12-16T02:47:57.984Z,996.50
2017-12-16T02:48:57.989Z,996.49
2017-12-16T02:49:58.011Z,996.52
2017-12-16T02:50:58.022Z,996.50
2017-12-16T02:51:58.033Z,996.49
2017-12-16T02:52:58.039Z,996.53
2017-12-16T02:53:58.060Z,996.54
2017-12-16T02:54:58.366Z,996.56
2017-12-16T02:55:58.079Z,996.55
2017-12-16T02:56:58.085Z,996.58
2017-12-16T02:57:58.113Z,996.59
2017-12-16T02:58:58.117Z,996.54
2017-12-16T02:59:58.136Z,996.55
2017-12-16T03:00:58.156Z,996.52
2017-12-16T03:01:58.162Z,996.57
2017-12-16T03:02:58.172Z,996.56
2017-12-16T03:03:58.205Z,996.52
2017-12-16T03:04:58.180Z,996.53
2017-12-16T03:05:58.202Z,996.51
2017-12-16T03:06:58.220Z,996.55
2017-12-16T03:07:58.226Z,996.55
2017-12-16T03:08:58.235Z,996.54
2017-12-16T03:09:58.253Z,996.51
2017-12-16T03:10:58.258Z,996.50
2017-12-16T03:11:58.278Z,996.50
2017-12-16T03:12:58.276Z,996.50
2017-12-16T03:13:58.303Z,996.48
2017-12-16T03:14:58.316Z,996.48
2017-12-16T03:15:58.346Z,996.51
2017-12-16T03:16:58.336Z,996.46
2017-12-16T03:17:58.350Z,996.50
2017-12-16T03:18:58.361Z,996.51
2017-12-16T03:19:58.373Z,996.50
2017-12-16T03:20:58.384Z,996.53
2017-12-16T03:21:58.400Z,996.53
2017-12-16T03:22:58.413Z,996.50
2017-12-16T03:23:58.417Z,996.54
2017-12-16T03:24:58.439Z,996.48
2017-12-16T03:25:58.449Z,996.47
2017-12-16T03:26:58.451Z,996.47
2017-12-16T03:27:58.470Z,996.52
2017-12-16T03:28:58.493Z,996.49
2017-12-16T03:29:58.497Z,996.51
2017-12-16T03:30:58.509Z,996.52
2017-12-16T03:31:58.515Z,996.50
2017-12-16T03:32:58.539Z,996.49
2017-12-16T03:33:58.547Z,996.52
2017-12-16T03:34:58.852Z,996.52
2017-12-16T03:35:58.567Z,996.52
2017-12-16T03:36:58.577Z,996.52
2017-12-16T03:37:58.592Z,996.47
2017-12-16T03:38:58.598Z,996.53
2017-12-16T03:39:58.610Z,996.49
2017-12-16T03:40:58.635Z,996.52
2017-12-16T03:41:58.638Z,996.53
2017-12-16T03:42:58.643Z,996.56
2017-12-16T03:43:58.669Z,996.56
2017-12-16T03:44:58.980Z,996.61
2017-12-16T03:45:58.682Z,996.57
2017-12-16T03:46:58.696Z,996.57
2017-12-16T03:47:58.706Z,996.58
2017-12-16T03:48:58.725Z,996.63
2017-12-16T03:49:58.753Z,996.60
2017-12-16T03:50:58.740Z,996.62
2017-12-16T03:51:58.753Z,996.60
2017-12-16T03:52:58.775Z,996.66
2017-12-16T03:53:58.779Z,996.64
2017-12-16T03:54:58.797Z,996.68
2017-12-16T03:55:58.800Z,996.67
2017-12-16T03:56:58.821Z,996.68
2017-12-16T03:57:58.829Z,996.69
2017-12-16T03:58:58.834Z,996.71
2017-12-16T03:59:58.857Z,996.69
2017-12-16T04:00:58.878Z,996.65
2017-12-16T04:01:58.881Z,996.67
2017-12-16T04:02:58.894Z,996.65
2017-12-16T04:03:58.894Z,996.65
2017-12-16T04:04:58.918Z,996.68
2017-12-16T04:05:58.926Z,996.69
2017-12-16T04:06:58.932Z,996.70
2017-12-16T04:07:58.945Z,996.70
2017-12-16T04:08:58.968Z,996.68
2017-12-16T04:09:59.276Z,996.71
2017-12-16T04:10:58.983Z,996.71
2017-12-16T04:11:59.001Z,996.70
2017-12-16T04:12:59.013Z,996.66
2017-12-16T04:13:59.029Z,996.64
2017-12-16T04:14:59.033Z,996.68
2017-12-16T04:15:59.059Z,996.65
2017-12-16T04:16:59.056Z,996.63
2017-12-16T04:17:59.066Z,996.58
2017-12-16T04:18:59.079Z,996.61
2017-12-16T04:19:59.397Z,996.61
2017-12-16T04:20:59.110Z,996.63
2017-12-16T04:21:59.124Z,996.66
2017-12-16T04:22:59.123Z,996.61
2017-12-16T04:23:59.144Z,996.65
2017-12-16T04:24:59.158Z,996.65
2017-12-16T04:25:59.173Z,996.63
2017-12-16T04:26:59.189Z,996.68
2017-12-16T04:27:59.197Z,996.64
2017-12-16T04:28:59.207Z,996.62
2017-12-16T04:29:59.210Z,996.62
2017-12-16T04:30:59.230Z,996.63
2017-12-16T04:31:59.247Z,996.65
2017-12-16T04:32:59.253Z,996.63
2017-12-16T04:33:59.272Z,996.68
2017-12-16T04:34:59.269Z,996.71
2017-12-16T04:35:59.292Z,996.65
2017-12-16T04:36:59.304Z,996.69
2017-12-16T04:37:59.306Z,996.69
2017-12-16T04:38:59.320Z,996.70
2017-12-16T04:39:59.342Z,996.70
2017-12-16T04:40:59.348Z,996.73
2017-12-16T04:41:59.359Z,996.72
2017-12-16T04:42:59.369Z,996.71
2017-12-16T04:43:59.399Z,996.69
2017-12-16T04:44:59.400Z,996.76
2017-12-16T04:45:59.408Z,996.75
2017-12-16T04:46:59.416Z,996.71
2017-12-16T04:47:59.427Z,996.71
2017-12-16T04:48:59.445Z,996.68
2017-12-16T04:49:59.464Z,996.72
2017-12-16T04:50:59.466Z,996.72
2017-12-16T04:51:59.485Z,996.72
2017-12-16T04:52:59.489Z,996.73
2017-12-16T04:53:59.505Z,996.71
2017-12-16T04:54:59.519Z,996.68
2017-12-16T04:55:59.535Z,996.75
2017-12-16T04:56:59.549Z,996.69
2017-12-16T04:57:59.560Z,996.72
2017-12-16T04:58:59.554Z,996.77
2017-12-16T04:59:59.586Z,996.73
2017-12-16T05:00:59.597Z,996.74
2017-12-16T05:01:59.595Z,996.73
2017-12-16T05:02:59.614Z,996.71
2017-12-16T05:03:59.633Z,996.73
2017-12-16T05:04:59.644Z,996.75
2017-12-16T05:05:59.653Z,996.76
2017-12-16T05:06:59.653Z,996.73
2017-12-16T05:07:59.678Z,996.73
2017-12-16T05:08:59.682Z,996.72
2017-12-16T05:09:59.691Z,996.72
2017-12-16T05:10:59.709Z,996.70
2017-12-16T05:11:59.721Z,996.74
2017-12-16T05:12:59.734Z,996.71
2017-12-16T05:13:59.749Z,996.73
2017-12-16T05:15:00.048Z,996.76
2017-12-16T05:15:59.772Z,996.71
2017-12-16T05:16:59.778Z,996.79
2017-12-16T05:17:59.789Z,996.79
2017-12-16T05:18:59.800Z,996.79
2017-12-16T05:19:59.823Z,996.81
2017-12-16T05:20:59.843Z,996.75
2017-12-16T05:21:59.846Z,996.83
2017-12-16T05:22:59.843Z,996.84
2017-12-16T05:23:59.876Z,996.87
2017-12-16T05:25:00.174Z,996.84
2017-12-16T05:25:59.895Z,996.89
2017-12-16T05:26:59.897Z,996.89
2017-12-16T05:27:59.919Z,996.87
2017-12-16T05:28:59.937Z,996.85
2017-12-16T05:29:59.942Z,996.84
2017-12-16T05:30:59.941Z,996.82
2017-12-16T05:31:59.966Z,996.84
2017-12-16T05:32:59.979Z,996.83
2017-12-16T05:33:59.981Z,996.87
2017-12-16T05:35:00.299Z,996.83
2017-12-16T05:36:00.017Z,996.85
2017-12-16T05:37:00.031Z,996.89
2017-12-16T05:38:00.039Z,996.92
2017-12-16T05:39:00.042Z,996.90
2017-12-16T05:40:00.061Z,996.89
2017-12-16T05:41:00.067Z,996.93
2017-12-16T05:42:00.076Z,996.94
2017-12-16T05:43:00.089Z,996.94
2017-12-16T05:44:00.108Z,996.95
2017-12-16T05:45:00.118Z,996.99
2017-12-16T05:46:00.128Z,996.99
2017-12-16T05:47:00.142Z,996.94
2017-12-16T05:48:00.165Z,996.97
2017-12-16T05:49:00.164Z,997.00
2017-12-16T05:50:00.473Z,997.01
2017-12-16T05:51:00.185Z,997.03
2017-12-16T05:52:00.203Z,997.05
2017-12-16T05:53:00.216Z,997.07
2017-12-16T05:54:00.224Z,997.06
2017-12-16T05:55:00.229Z,997.07
2017-12-16T05:56:00.254Z,997.05
2017-12-16T05:57:00.260Z,997.08
2017-12-16T05:58:00.268Z,997.04
2017-12-16T05:59:00.334Z,997.05
2017-12-16T06:00:00.305Z,997.04
2017-12-16T06:01:00.312Z,997.10
2017-12-16T06:02:00.326Z,997.08
2017-12-16T06:03:00.326Z,997.10
2017-12-16T06:04:00.363Z,997.09
2017-12-16T06:05:00.362Z,997.08
2017-12-16T06:06:00.371Z,997.10
2017-12-16T06:07:00.434Z,997.12
2017-12-16T06:08:00.394Z,997.09
2017-12-16T06:09:00.415Z,997.09
2017-12-16T06:10:00.423Z,997.07
2017-12-16T06:11:00.429Z,997.12
2017-12-16T06:12:00.452Z,997.06
2017-12-16T06:13:00.458Z,997.10
2017-12-16T06:14:00.460Z,997.06
2017-12-16T06:15:00.481Z,997.09
2017-12-16T06:16:00.491Z,997.06
2017-12-16T06:17:00.503Z,997.09
2017-12-16T06:18:00.519Z,997.07
2017-12-16T06:19:00.525Z,997.07
2017-12-16T06:20:00.548Z,997.11
2017-12-16T06:21:00.554Z,997.15
2017-12-16T06:22:00.562Z,997.13
2017-12-16T06:23:00.594Z,997.17
2017-12-16T06:24:00.587Z,997.15
2017-12-16T06:25:00.599Z,997.15
2017-12-16T06:26:00.615Z,997.13
2017-12-16T06:27:00.622Z,997.09
2017-12-16T06:28:00.651Z,997.13
2017-12-16T06:29:00.643Z,997.13
2017-12-16T06:30:00.654Z,997.08
2017-12-16T06:31:00.684Z,997.09
2017-12-16T06:32:00.694Z,997.11
2017-12-16T06:33:00.698Z,997.12
2017-12-16T06:34:00.707Z,997.10
2017-12-16T06:35:00.726Z,997.11
2017-12-16T06:36:00.731Z,997.16
2017-12-16T06:37:00.750Z,997.15
2017-12-16T06:38:00.758Z,997.19
2017-12-16T06:39:00.769Z,997.18
2017-12-16T06:40:01.083Z,997.22
2017-12-16T06:41:00.788Z,997.24
2017-12-16T06:42:00.795Z,997.23
2017-12-16T06:43:00.822Z,997.24
2017-12-16T06:44:00.832Z,997.25
2017-12-16T06:45:00.846Z,997.28
2017-12-16T06:46:00.855Z,997.25
2017-12-16T06:47:00.866Z,997.28
2017-12-16T06:48:00.878Z,997.23
2017-12-16T06:49:00.889Z,997.29
2017-12-16T06:50:00.894Z,997.31
2017-12-16T06:51:00.925Z,997.32
2017-12-16T06:52:00.923Z,997.32
2017-12-16T06:53:00.936Z,997.33
2017-12-16T06:54:00.976Z,997.37
2017-12-16T06:55:00.969Z,997.36
2017-12-16T06:56:00.977Z,997.35
2017-12-16T06:57:00.980Z,997.39
2017-12-16T06:58:00.989Z,997.37
2017-12-16T06:59:01.015Z,997.38
2017-12-16T07:00:01.025Z,997.39
2017-12-16T07:01:01.038Z,997.41
2017-12-16T07:02:01.040Z,997.44
2017-12-16T07:03:01.058Z,997.48
2017-12-16T07:04:01.080Z,997.43
2017-12-16T07:05:01.075Z,997.45
2017-12-16T07:06:01.099Z,997.48
2017-12-16T07:07:01.110Z,997.50
2017-12-16T07:08:01.115Z,997.56
2017-12-16T07:09:01.135Z,997.53
2017-12-16T07:10:01.143Z,997.59
2017-12-16T07:11:01.154Z,997.51
2017-12-16T07:12:01.174Z,997.57
2017-12-16T07:13:01.179Z,997.57
2017-12-16T07:14:01.196Z,997.58
2017-12-16T07:15:01.214Z,997.62
2017-12-16T07:16:01.219Z,997.62
2017-12-16T07:17:01.231Z,997.62
2017-12-16T07:18:01.247Z,997.68
2017-12-16T07:19:01.251Z,997.64
2017-12-16T07:20:01.270Z,997.66
2017-12-16T07:21:01.276Z,997.69
2017-12-16T07:22:01.284Z,997.70
2017-12-16T07:23:01.310Z,997.73
2017-12-16T07:24:01.313Z,997.71
2017-12-16T07:25:01.320Z,997.75
2017-12-16T07:26:01.347Z,997.71
2017-12-16T07:27:01.355Z,997.71
2017-12-16T07:28:01.367Z,997.75
2017-12-16T07:29:01.365Z,997.81
2017-12-16T07:30:01.380Z,997.84
2017-12-16T07:31:01.406Z,997.83
2017-12-16T07:32:01.410Z,997.86
2017-12-16T07:33:01.422Z,997.82
2017-12-16T07:34:01.426Z,997.85
2017-12-16T07:35:01.750Z,997.82
2017-12-16T07:36:01.456Z,997.83
2017-12-16T07:37:01.462Z,997.88
2017-12-16T07:38:01.471Z,997.88
2017-12-16T07:39:01.495Z,997.87
2017-12-16T07:40:01.507Z,997.89
2017-12-16T07:41:01.513Z,997.91
2017-12-16T07:42:01.527Z,997.91
2017-12-16T07:43:01.546Z,997.94
2017-12-16T07:44:01.558Z,997.98
2017-12-16T07:45:01.564Z,997.93
2017-12-16T07:46:01.573Z,997.93
2017-12-16T07:47:01.591Z,997.93
2017-12-16T07:48:01.596Z,997.98
2017-12-16T07:49:01.613Z,997.97
2017-12-16T07:50:01.619Z,997.96
2017-12-16T07:51:01.642Z,997.98
2017-12-16T07:52:01.648Z,997.97
2017-12-16T07:53:01.659Z,998.01
2017-12-16T07:54:01.663Z,998.01
2017-12-16T07:55:01.687Z,998.04
2017-12-16T07:56:01.697Z,998.06
2017-12-16T07:57:01.706Z,998.06
2017-12-16T07:58:01.714Z,998.03
2017-12-16T07:59:01.736Z,998.04
2017-12-16T08:00:01.745Z,998.07
2017-12-16T08:01:01.749Z,998.07
2017-12-16T08:02:01.781Z,998.07
2017-12-16T08:03:01.789Z,998.10
2017-12-16T08:04:01.788Z,998.10
2017-12-16T08:05:01.802Z,998.08
2017-12-16T08:06:01.815Z,998.15
2017-12-16T08:07:01.827Z,998.14
2017-12-16T08:08:01.847Z,998.16
2017-12-16T08:09:01.892Z,998.21
2017-12-16T08:10:01.855Z,998.17
2017-12-16T08:11:01.873Z,998.21
2017-12-16T08:12:01.884Z,998.20
2017-12-16T08:13:01.897Z,998.24
2017-12-16T08:14:01.907Z,998.22
2017-12-16T08:15:01.913Z,998.26
2017-12-16T08:16:01.943Z,998.26
2017-12-16T08:17:01.949Z,998.30
2017-12-16T08:18:01.951Z,998.34
2017-12-16T08:19:01.969Z,998.35
2017-12-16T08:20:01.975Z,998.35
2017-12-16T08:21:01.999Z,998.35
2017-12-16T08:22:02.008Z,998.33
2017-12-16T08:23:02.007Z,998.34
2017-12-16T08:24:02.023Z,998.32
2017-12-16T08:25:02.044Z,998.37
2017-12-16T08:26:02.047Z,998.43
2017-12-16T08:27:02.059Z,998.45
2017-12-16T08:28:02.064Z,998.45
2017-12-16T08:29:02.095Z,998.49
2017-12-16T08:30:02.105Z,998.50
2017-12-16T08:31:02.102Z,998.55
2017-12-16T08:32:02.116Z,998.60
2017-12-16T08:33:02.128Z,998.59
2017-12-16T08:34:02.142Z,998.63
2017-12-16T08:35:02.161Z,998.68
2017-12-16T08:36:02.160Z,998.68
2017-12-16T08:37:02.186Z,998.71
2017-12-16T08:38:02.202Z,998.78
2017-12-16T08:39:02.199Z,998.77
2017-12-16T08:40:02.208Z,998.80
2017-12-16T08:41:02.221Z,998.80
2017-12-16T08:42:02.243Z,998.83
2017-12-16T08:43:02.252Z,998.86
2017-12-16T08:44:02.261Z,998.88
2017-12-16T08:45:02.283Z,998.89
2017-12-16T08:46:02.293Z,998.85
2017-12-16T08:47:02.305Z,998.92
2017-12-16T08:48:02.311Z,998.91
2017-12-16T08:49:02.330Z,998.95
2017-12-16T08:50:02.339Z,998.88
2017-12-16T08:51:02.342Z,998.92
2017-12-16T08:52:02.369Z,998.95
2017-12-16T08:53:02.374Z,998.92
2017-12-16T08:54:02.383Z,998.93
2017-12-16T08:55:02.396Z,998.95
2017-12-16T08:56:02.413Z,998.99
2017-12-16T08:57:02.426Z,998.95
2017-12-16T08:58:02.440Z,999.03
2017-12-16T08:59:02.454Z,999.02
2017-12-16T09:00:02.470Z,999.06
2017-12-16T09:01:02.476Z,999.04
2017-12-16T09:02:02.498Z,999.12
2017-12-16T09:03:02.510Z,999.15
2017-12-16T09:04:02.515Z,999.13
2017-12-16T09:05:02.530Z,999.12
2017-12-16T09:06:02.542Z,999.17
2017-12-16T09:07:02.549Z,999.10
2017-12-16T09:08:02.562Z,999.13
2017-12-16T09:09:02.584Z,999.16
2017-12-16T09:10:02.587Z,999.17
2017-12-16T09:11:02.613Z,999.16
2017-12-16T09:12:02.623Z,999.14
2017-12-16T09:13:02.638Z,999.16
2017-12-16T09:14:02.638Z,999.19
2017-12-16T09:15:02.656Z,999.18
2017-12-16T09:16:02.676Z,999.24
2017-12-16T09:17:02.683Z,999.19
2017-12-16T09:18:02.696Z,999.24
2017-12-16T09:19:02.710Z,999.24
2017-12-16T09:20:02.720Z,999.25
2017-12-16T09:21:02.758Z,999.27
2017-12-16T09:22:02.755Z,999.27
2017-12-16T09:23:02.760Z,999.28
2017-12-16T09:24:02.779Z,999.26
2017-12-16T09:25:02.790Z,999.24
2017-12-16T09:26:02.811Z,999.20
2017-12-16T09:27:02.823Z,999.26
2017-12-16T09:28:02.822Z,999.23
2017-12-16T09:29:02.841Z,999.29
2017-12-16T09:30:03.163Z,999.33
2017-12-16T09:31:02.869Z,999.40
2017-12-16T09:32:02.880Z,999.39
2017-12-16T09:33:02.892Z,999.40
2017-12-16T09:34:02.901Z,999.42
2017-12-16T09:35:02.919Z,999.47
2017-12-16T09:36:02.937Z,999.51
2017-12-16T09:37:02.945Z,999.47
2017-12-16T09:38:02.958Z,999.51
2017-12-16T09:39:02.970Z,999.54
2017-12-16T09:40:02.986Z,999.53
2017-12-16T09:41:02.994Z,999.42
2017-12-16T09:42:03.009Z,999.44
2017-12-16T09:43:03.023Z,999.42
2017-12-16T09:44:03.040Z,999.39
2017-12-16T09:45:03.052Z,999.38
2017-12-16T09:46:03.061Z,999.37
2017-12-16T09:47:03.095Z,999.36
2017-12-16T09:48:03.097Z,999.34
2017-12-16T09:49:03.115Z,999.33
2017-12-16T09:50:03.118Z,999.32
2017-12-16T09:51:03.133Z,999.32
2017-12-16T09:52:03.155Z,999.31
2017-12-16T09:53:03.163Z,999.28
2017-12-16T09:54:03.189Z,999.26
2017-12-16T09:55:03.193Z,999.29
2017-12-16T09:56:03.214Z,999.33
2017-12-16T09:57:03.224Z,999.30
2017-12-16T09:58:03.233Z,999.31
2017-12-16T09:59:03.259Z,999.37
2017-12-16T10:00:03.258Z,999.35
2017-12-16T10:01:03.288Z,999.33
2017-12-16T10:02:03.366Z,999.31
2017-12-16T10:03:03.297Z,999.25
2017-12-16T10:04:03.321Z,999.33
2017-12-16T10:05:03.326Z,999.33
2017-12-16T10:06:03.348Z,999.28
2017-12-16T10:07:03.360Z,999.36
2017-12-16T10:08:03.385Z,999.28
2017-12-16T10:09:03.391Z,999.27
2017-12-16T10:10:03.402Z,999.26
2017-12-16T10:11:03.423Z,999.22
2017-12-16T10:12:03.437Z,999.22
2017-12-16T10:13:03.454Z,999.27
2017-12-16T10:14:03.462Z,999.28
2017-12-16T10:15:03.476Z,999.25
2017-12-16T10:16:03.495Z,999.25
2017-12-16T10:17:03.507Z,999.23
2017-12-16T10:18:03.521Z,999.20
2017-12-16T10:19:03.533Z,999.30
2017-12-16T10:20:03.556Z,999.26
2017-12-16T10:21:03.562Z,999.18
2017-12-16T10:22:03.571Z,999.22
2017-12-16T10:23:03.590Z,999.22
2017-12-16T10:24:03.598Z,999.22
2017-12-16T10:25:03.609Z,999.28
2017-12-16T10:26:03.629Z,999.25
2017-12-16T10:27:03.635Z,999.26
2017-12-16T10:28:03.660Z,999.29
2017-12-16T10:29:03.664Z,999.31
2017-12-16T10:30:03.673Z,999.31
2017-12-16T10:31:03.698Z,999.32
2017-12-16T10:32:03.711Z,999.25
2017-12-16T10:33:03.718Z,999.26
2017-12-16T10:34:03.749Z,999.31
2017-12-16T10:35:03.750Z,999.28
2017-12-16T10:36:03.773Z,999.32
2017-12-16T10:37:03.775Z,999.30
2017-12-16T10:38:03.783Z,999.30
2017-12-16T10:39:03.807Z,999.29
2017-12-16T10:40:04.118Z,999.28
2017-12-16T10:41:03.832Z,999.28
2017-12-16T10:42:03.853Z,999.30
2017-12-16T10:43:03.851Z,999.28
2017-12-16T10:44:03.874Z,999.29
2017-12-16T10:45:03.882Z,999.30
2017-12-16T10:46:03.891Z,999.32
2017-12-16T10:47:03.911Z,999.35
2017-12-16T10:48:03.928Z,999.32
2017-12-16T10:49:03.941Z,999.36
2017-12-16T10:50:03.943Z,999.37
2017-12-16T10:51:03.972Z,999.36
2017-12-16T10:52:03.974Z,999.42
2017-12-16T10:53:03.986Z,999.42
2017-12-16T10:54:04.005Z,999.39
2017-12-16T10:55:04.013Z,999.44
2017-12-16T10:56:04.030Z,999.41
2017-12-16T10:57:04.043Z,999.49
2017-12-16T10:58:04.051Z,999.52
2017-12-16T10:59:04.069Z,999.50
2017-12-16T11:00:04.508Z,999.52
2017-12-16T11:01:04.093Z,999.56
2017-12-16T11:02:04.102Z,999.54
2017-12-16T11:03:04.128Z,999.56
2017-12-16T11:04:04.133Z,999.50
2017-12-16T11:05:04.146Z,999.56
2017-12-16T11:06:04.220Z,999.59
2017-12-16T11:07:04.165Z,999.59
2017-12-16T11:08:04.192Z,999.53
2017-12-16T11:09:04.200Z,999.58
2017-12-16T11:10:04.205Z,999.63
2017-12-16T11:11:04.223Z,999.62
2017-12-16T11:12:04.234Z,999.64
2017-12-16T11:13:04.256Z,999.68
2017-12-16T11:14:04.257Z,999.62
2017-12-16T11:15:04.283Z,999.63
2017-12-16T11:16:04.287Z,999.71
2017-12-16T11:17:04.296Z,999.67
2017-12-16T11:18:04.318Z,999.70
2017-12-16T11:19:04.326Z,999.69
2017-12-16T11:20:04.331Z,999.63
2017-12-16T11:21:04.343Z,999.71
2017-12-16T11:22:04.365Z,999.72
2017-12-16T11:23:04.370Z,999.65
2017-12-16T11:24:04.390Z,999.69
2017-12-16T11:25:04.399Z,999.67
2017-12-16T11:26:04.415Z,999.70
2017-12-16T11:27:04.422Z,999.73
2017-12-16T11:28:04.433Z,999.76
2017-12-16T11:29:04.451Z,999.82
2017-12-16T11:30:04.467Z,999.79
2017-12-16T11:31:04.471Z,999.77
2017-12-16T11:32:04.510Z,999.82
2017-12-16T11:33:04.501Z,999.82
2017-12-16T11:34:04.505Z,999.79
2017-12-16T11:35:04.519Z,999.78
2017-12-16T11:36:04.536Z,999.81
2017-12-16T11:37:04.549Z,999.85
2017-12-16T11:38:04.564Z,999.85
2017-12-16T11:39:04.574Z,999.84
2017-12-16T11:40:04.607Z,999.89
2017-12-16T11:41:04.592Z,999.84
2017-12-16T11:42:04.602Z,999.87
2017-12-16T11:43:04.632Z,999.86
2017-12-16T11:44:04.631Z,999.89
2017-12-16T11:45:04.650Z,999.87
2017-12-16T11:46:04.666Z,999.90
2017-12-16T11:47:04.672Z,999.92
2017-12-16T11:48:04.684Z,999.87
2017-12-16T11:49:04.696Z,999.87
2017-12-16T11:50:04.717Z,999.91
2017-12-16T11:51:04.723Z,999.89
2017-12-16T11:52:04.728Z,999.91
2017-12-16T11:53:04.758Z,999.90
2017-12-16T11:54:04.769Z,999.91
2017-12-16T11:55:04.774Z,999.91
2017-12-16T11:56:04.798Z,999.91
2017-12-16T11:57:04.805Z,999.92
2017-12-16T11:58:04.811Z,999.97
2017-12-16T11:59:04.833Z,999.94
2017-12-16T12:00:04.841Z,999.92
2017-12-16T12:01:04.849Z,999.95
2017-12-16T12:02:04.877Z,999.99
2017-12-16T12:03:04.875Z,999.99
2017-12-16T12:04:04.895Z,999.99
2017-12-16T12:05:04.901Z,1000.09
2017-12-16T12:06:04.916Z,1000.11
2017-12-16T12:07:04.933Z,1000.09
2017-12-16T12:08:04.945Z,1000.07
2017-12-16T12:09:04.957Z,1000.08
2017-12-16T12:10:04.973Z,1000.12
2017-12-16T12:11:04.979Z,1000.07
2017-12-16T12:12:04.998Z,1000.11
2017-12-16T12:13:05.024Z,1000.05
2017-12-16T12:14:05.019Z,1000.09
2017-12-16T12:15:05.043Z,1000.10
2017-12-16T12:16:05.048Z,1000.10
2017-12-16T12:17:05.055Z,1000.10
2017-12-16T12:18:05.075Z,1000.11
2017-12-16T12:19:05.080Z,1000.15
2017-12-16T12:20:05.108Z,1000.17
2017-12-16T12:21:05.111Z,1000.18
2017-12-16T12:22:05.125Z,1000.21
2017-12-16T12:23:05.133Z,1000.17
2017-12-16T12:24:05.168Z,1000.16
2017-12-16T12:25:05.167Z,1000.13
2017-12-16T12:26:05.180Z,1000.17
2017-12-16T12:27:05.195Z,1000.13
2017-12-16T12:28:05.208Z,1000.11